sensor_id;sensor_type;location;lat;lon;timestamp;pressure;altitude;pressure_sealevel;temperature;humidity
46944;BME280;32678;43.852;25.952;2024-01-06T00:03:18;100912.72;;;9.75;68.20
46944;BME280;32678;43.852;25.952;2024-01-06T00:08:16;100909.34;;;9.72;68.25
46944;BME280;32678;43.852;25.952;2024-01-06T00:13:12;100896.13;;;9.76;68.52
46944;BME280;32678;43.852;25.952;2024-01-06T00:18:09;100881.84;;;9.55;68.35
46944;BME280;32678;43.852;25.952;2024-01-06T00:23:05;100874.81;;;9.57;68.00
46944;BME280;32678;43.852;25.952;2024-01-06T00:28:03;100882.44;;;9.65;68.18
46944;BME280;32678;43.852;25.952;2024-01-06T00:33:00;100883.31;;;9.66;68.18
46944;BME280;32678;43.852;25.952;2024-01-06T00:37:56;100890.47;;;8.91;68.00
46944;BME280;32678;43.852;25.952;2024-01-06T00:42:53;100912.47;;;9.18;67.22
46944;BME280;32678;43.852;25.952;2024-01-06T00:47:50;100923.19;;;9.43;67.23
46944;BME280;32678;43.852;25.952;2024-01-06T00:52:47;100924.56;;;9.57;67.31
46944;BME280;32678;43.852;25.952;2024-01-06T00:57:43;100924.25;;;9.68;67.47
46944;BME280;32678;43.852;25.952;2024-01-06T01:02:40;100921.84;;;9.61;67.60
46944;BME280;32678;43.852;25.952;2024-01-06T01:07:37;100928.72;;;9.65;67.52
46944;BME280;32678;43.852;25.952;2024-01-06T01:12:34;100923.72;;;9.88;67.34
46944;BME280;32678;43.852;25.952;2024-01-06T01:17:30;100925.75;;;10.09;66.43
46944;BME280;32678;43.852;25.952;2024-01-06T01:22:27;100919.03;;;9.99;65.13
46944;BME280;32678;43.852;25.952;2024-01-06T01:27:24;100901.72;;;9.63;65.43
46944;BME280;32678;43.852;25.952;2024-01-06T01:32:21;100895.91;;;9.51;65.98
46944;BME280;32678;43.852;25.952;2024-01-06T01:37:18;100881.63;;;9.63;66.11
46944;BME280;32678;43.852;25.952;2024-01-06T01:42:14;100875.31;;;9.72;64.90
46944;BME280;32678;43.852;25.952;2024-01-06T01:47:11;100870.13;;;9.69;64.91
46944;BME280;32678;43.852;25.952;2024-01-06T01:52:08;100870.09;;;9.70;64.71
46944;BME280;32678;43.852;25.952;2024-01-06T01:57:04;100868.53;;;9.63;64.58
46944;BME280;32678;43.852;25.952;2024-01-06T02:02:01;100861.13;;;9.79;64.59
46944;BME280;32678;43.852;25.952;2024-01-06T02:06:59;100860.91;;;9.86;64.33
46944;BME280;32678;43.852;25.952;2024-01-06T02:11:56;100833.78;;;9.89;63.95
46944;BME280;32678;43.852;25.952;2024-01-06T02:16:53;100854.75;;;9.87;63.89
46944;BME280;32678;43.852;25.952;2024-01-06T02:21:51;100828.38;;;9.95;63.43
46944;BME280;32678;43.852;25.952;2024-01-06T02:26:48;100828.38;;;9.95;63.24
46944;BME280;32678;43.852;25.952;2024-01-06T02:31:45;100834.50;;;9.94;62.95
46944;BME280;32678;43.852;25.952;2024-01-06T02:36:41;100823.03;;;9.98;62.72
46944;BME280;32678;43.852;25.952;2024-01-06T02:41:39;100818.38;;;10.08;62.34
46944;BME280;32678;43.852;25.952;2024-01-06T02:46:35;100793.03;;;10.08;62.25
46944;BME280;32678;43.852;25.952;2024-01-06T02:51:32;100803.66;;;10.04;62.01
46944;BME280;32678;43.852;25.952;2024-01-06T02:56:28;100803.47;;;10.10;61.99
46944;BME280;32678;43.852;25.952;2024-01-06T03:01:25;100809.72;;;10.06;61.87
46944;BME280;32678;43.852;25.952;2024-01-06T03:06:22;100802.31;;;10.20;62.48
46944;BME280;32678;43.852;25.952;2024-01-06T03:11:19;100801.13;;;10.00;63.19
46944;BME280;32678;43.852;25.952;2024-01-06T03:16:15;100788.50;;;9.54;65.42
46944;BME280;32678;43.852;25.952;2024-01-06T03:21:19;100792.03;;;9.83;63.84
46944;BME280;32678;43.852;25.952;2024-01-06T03:26:16;100801.25;;;9.67;64.11
46944;BME280;32678;43.852;25.952;2024-01-06T03:31:13;100795.59;;;9.51;64.73
46944;BME280;32678;43.852;25.952;2024-01-06T03:36:12;100788.91;;;9.08;66.16
46944;BME280;32678;43.852;25.952;2024-01-06T03:41:09;100786.94;;;8.84;68.52
46944;BME280;32678;43.852;25.952;2024-01-06T03:46:05;100781.28;;;8.28;70.95
46944;BME280;32678;43.852;25.952;2024-01-06T03:51:02;100793.22;;;8.76;69.41
46944;BME280;32678;43.852;25.952;2024-01-06T03:55:59;100794.06;;;8.78;68.78
46944;BME280;32678;43.852;25.952;2024-01-06T04:00:57;100794.09;;;9.10;67.25
46944;BME280;32678;43.852;25.952;2024-01-06T04:05:53;100793.09;;;9.14;66.47
46944;BME280;32678;43.852;25.952;2024-01-06T04:10:50;100785.00;;;8.91;66.99
46944;BME280;32678;43.852;25.952;2024-01-06T04:15:47;100785.97;;;9.21;66.21
46944;BME280;32678;43.852;25.952;2024-01-06T04:20:44;100797.69;;;9.38;65.32
46944;BME280;32678;43.852;25.952;2024-01-06T04:25:41;100805.22;;;9.49;65.07
46944;BME280;32678;43.852;25.952;2024-01-06T04:30:37;100801.69;;;9.51;64.64
46944;BME280;32678;43.852;25.952;2024-01-06T04:35:34;100795.91;;;9.39;64.64
46944;BME280;32678;43.852;25.952;2024-01-06T04:40:31;100807.81;;;9.50;64.16
46944;BME280;32678;43.852;25.952;2024-01-06T04:45:28;100815.28;;;9.64;63.64
46944;BME280;32678;43.852;25.952;2024-01-06T04:50:24;100809.75;;;9.75;63.08
46944;BME280;32678;43.852;25.952;2024-01-06T04:55:21;100811.09;;;9.88;63.08
46944;BME280;32678;43.852;25.952;2024-01-06T05:00:18;100791.72;;;9.93;62.53
46944;BME280;32678;43.852;25.952;2024-01-06T05:05:15;100791.00;;;9.88;62.24
46944;BME280;32678;43.852;25.952;2024-01-06T05:10:11;100789.63;;;9.77;62.79
46944;BME280;32678;43.852;25.952;2024-01-06T05:15:09;100792.03;;;9.83;62.81
46944;BME280;32678;43.852;25.952;2024-01-06T05:20:07;100801.94;;;9.73;63.02
46944;BME280;32678;43.852;25.952;2024-01-06T05:25:04;100797.69;;;9.69;63.52
46944;BME280;32678;43.852;25.952;2024-01-06T05:30:00;100807.09;;;9.76;63.49
46944;BME280;32678;43.852;25.952;2024-01-06T05:34:57;100805.34;;;9.77;63.42
46944;BME280;32678;43.852;25.952;2024-01-06T05:39:54;100814.00;;;9.79;63.51
46944;BME280;32678;43.852;25.952;2024-01-06T05:44:51;100808.13;;;9.71;63.72
46944;BME280;32678;43.852;25.952;2024-01-06T05:49:47;100800.03;;;9.78;63.59
46944;BME280;32678;43.852;25.952;2024-01-06T05:54:44;100810.25;;;9.87;63.64
46944;BME280;32678;43.852;25.952;2024-01-06T05:59:41;100801.63;;;9.84;63.38
46944;BME280;32678;43.852;25.952;2024-01-06T06:04:38;100803.44;;;9.82;63.02
46944;BME280;32678;43.852;25.952;2024-01-06T06:09:35;100793.00;;;9.80;63.25
46944;BME280;32678;43.852;25.952;2024-01-06T06:14:33;100789.94;;;9.66;63.90
46944;BME280;32678;43.852;25.952;2024-01-06T06:19:31;100762.66;;;9.73;63.38
46944;BME280;32678;43.852;25.952;2024-01-06T06:24:27;100772.78;;;9.56;63.90
46944;BME280;32678;43.852;25.952;2024-01-06T06:29:24;100769.78;;;9.68;64.18
46944;BME280;32678;43.852;25.952;2024-01-06T06:34:21;100758.09;;;9.80;64.12
46944;BME280;32678;43.852;25.952;2024-01-06T06:39:18;100744.72;;;9.89;64.04
46944;BME280;32678;43.852;25.952;2024-01-06T06:44:15;100763.09;;;9.87;63.30
46944;BME280;32678;43.852;25.952;2024-01-06T06:49:12;100766.53;;;9.89;64.01
46944;BME280;32678;43.852;25.952;2024-01-06T06:54:08;100766.44;;;9.92;64.01
46944;BME280;32678;43.852;25.952;2024-01-06T06:59:05;100787.94;;;10.04;64.01
46944;BME280;32678;43.852;25.952;2024-01-06T07:04:02;100796.22;;;10.19;63.70
46944;BME280;32678;43.852;25.952;2024-01-06T07:08:59;100804.19;;;10.15;64.36
46944;BME280;32678;43.852;25.952;2024-01-06T07:13:55;100790.66;;;10.00;65.64
46944;BME280;32678;43.852;25.952;2024-01-06T07:18:53;100784.41;;;10.05;65.72
46944;BME280;32678;43.852;25.952;2024-01-06T07:23:49;100779.28;;;10.02;65.98
46944;BME280;32678;43.852;25.952;2024-01-06T07:28:46;100773.75;;;10.11;65.48
46944;BME280;32678;43.852;25.952;2024-01-06T07:33:43;100759.53;;;10.19;65.08
46944;BME280;32678;43.852;25.952;2024-01-06T07:38:41;100764.94;;;10.13;64.93
46944;BME280;32678;43.852;25.952;2024-01-06T07:43:37;100767.75;;;10.07;65.88
46944;BME280;32678;43.852;25.952;2024-01-06T07:48:34;100764.47;;;10.00;66.18
46944;BME280;32678;43.852;25.952;2024-01-06T07:53:31;100764.66;;;9.94;66.32
46944;BME280;32678;43.852;25.952;2024-01-06T07:58:30;100770.78;;;9.93;66.05
46944;BME280;32678;43.852;25.952;2024-01-06T08:03:26;100753.56;;;9.86;65.90
46944;BME280;32678;43.852;25.952;2024-01-06T08:08:23;100766.38;;;9.95;66.47
46944;BME280;32678;43.852;25.952;2024-01-06T08:13:19;100774.63;;;10.11;66.54
46944;BME280;32678;43.852;25.952;2024-01-06T08:18:17;100759.22;;;10.00;66.36
46944;BME280;32678;43.852;25.952;2024-01-06T08:23:14;100759.59;;;10.18;66.17
46944;BME280;32678;43.852;25.952;2024-01-06T08:28:12;100757.47;;;10.30;66.11
46944;BME280;32678;43.852;25.952;2024-01-06T08:33:10;100751.91;;;10.39;65.56
46944;BME280;32678;43.852;25.952;2024-01-06T08:38:08;100741.13;;;10.49;65.79
46944;BME280;32678;43.852;25.952;2024-01-06T08:43:05;100746.97;;;10.57;65.57
46944;BME280;32678;43.852;25.952;2024-01-06T08:48:02;100742.63;;;10.56;65.38
46944;BME280;32678;43.852;25.952;2024-01-06T08:52:58;100728.56;;;10.58;65.84
46944;BME280;32678;43.852;25.952;2024-01-06T08:57:56;100721.38;;;10.65;64.92
46944;BME280;32678;43.852;25.952;2024-01-06T09:02:53;100722.50;;;10.56;64.84
46944;BME280;32678;43.852;25.952;2024-01-06T09:07:49;100710.47;;;10.51;65.54
46944;BME280;32678;43.852;25.952;2024-01-06T09:12:50;100710.38;;;10.54;63.88
46944;BME280;32678;43.852;25.952;2024-01-06T09:17:48;100701.09;;;10.43;64.49
46944;BME280;32678;43.852;25.952;2024-01-06T09:22:45;100693.59;;;10.33;63.34
46944;BME280;32678;43.852;25.952;2024-01-06T09:27:41;100673.22;;;10.41;63.86
46944;BME280;32678;43.852;25.952;2024-01-06T09:32:41;100673.13;;;10.44;64.14
46944;BME280;32678;43.852;25.952;2024-01-06T09:37:38;100665.66;;;10.32;65.00
46944;BME280;32678;43.852;25.952;2024-01-06T09:42:35;100651.88;;;9.99;65.52
46944;BME280;32678;43.852;25.952;2024-01-06T09:47:33;100646.88;;;9.36;67.38
46944;BME280;32678;43.852;25.952;2024-01-06T09:52:31;100638.81;;;9.71;66.94
46944;BME280;32678;43.852;25.952;2024-01-06T09:57:29;100625.53;;;10.04;66.55
46944;BME280;32678;43.852;25.952;2024-01-06T10:02:26;100622.34;;;10.22;66.45
46944;BME280;32678;43.852;25.952;2024-01-06T10:07:22;100614.28;;;9.74;67.33
46944;BME280;32678;43.852;25.952;2024-01-06T10:12:22;100602.53;;;9.31;69.63
46944;BME280;32678;43.852;25.952;2024-01-06T10:17:28;100596.19;;;8.80;72.16
46944;BME280;32678;43.852;25.952;2024-01-06T10:22:25;100586.94;;;8.68;74.51
46944;BME280;32678;43.852;25.952;2024-01-06T10:27:21;100587.56;;;9.07;73.92
46944;BME280;32678;43.852;25.952;2024-01-06T10:32:18;100573.84;;;9.56;72.31
46944;BME280;32678;43.852;25.952;2024-01-06T10:37:16;100560.47;;;9.91;71.70
46944;BME280;32678;43.852;25.952;2024-01-06T10:42:16;100549.91;;;9.40;73.36
46944;BME280;32678;43.852;25.952;2024-01-06T10:47:13;100548.44;;;9.32;74.46
46944;BME280;32678;43.852;25.952;2024-01-06T10:52:10;100525.41;;;9.15;75.20
46944;BME280;32678;43.852;25.952;2024-01-06T10:57:08;100535.78;;;9.46;74.38
46944;BME280;32678;43.852;25.952;2024-01-06T11:02:05;100516.72;;;9.69;73.75
46944;BME280;32678;43.852;25.952;2024-01-06T11:07:03;100512.03;;;9.78;73.70
46944;BME280;32678;43.852;25.952;2024-01-06T11:12:00;100512.53;;;9.89;73.80
46944;BME280;32678;43.852;25.952;2024-01-06T11:16:58;100518.69;;;10.13;72.90
46944;BME280;32678;43.852;25.952;2024-01-06T11:21:54;100510.09;;;10.34;71.82
46944;BME280;32678;43.852;25.952;2024-01-06T11:26:52;100500.84;;;10.72;70.93
46944;BME280;32678;43.852;25.952;2024-01-06T11:32:16;100516.94;;;11.08;69.84
46944;BME280;32678;43.852;25.952;2024-01-06T11:37:19;100496.81;;;11.30;68.90
46944;BME280;32678;43.852;25.952;2024-01-06T11:42:16;100500.72;;;11.42;68.75
46944;BME280;32678;43.852;25.952;2024-01-06T11:47:13;100502.06;;;11.52;68.50
46944;BME280;32678;43.852;25.952;2024-01-06T11:52:11;100491.94;;;11.63;68.48
46944;BME280;32678;43.852;25.952;2024-01-06T11:57:08;100485.69;;;11.46;69.88
46944;BME280;32678;43.852;25.952;2024-01-06T12:02:05;100482.75;;;11.75;68.90
46944;BME280;32678;43.852;25.952;2024-01-06T12:07:07;100482.97;;;11.91;68.32
46944;BME280;32678;43.852;25.952;2024-01-06T12:12:04;100469.56;;;11.97;67.99
46944;BME280;32678;43.852;25.952;2024-01-06T12:17:03;100475.59;;;11.99;67.75
46944;BME280;32678;43.852;25.952;2024-01-06T12:22:01;100475.34;;;12.05;66.97
46944;BME280;32678;43.852;25.952;2024-01-06T12:26:58;100474.31;;;12.07;66.91
46944;BME280;32678;43.852;25.952;2024-01-06T12:31:55;100489.13;;;12.10;66.89
46944;BME280;32678;43.852;25.952;2024-01-06T12:36:53;100480.03;;;12.17;66.50
46944;BME280;32678;43.852;25.952;2024-01-06T12:41:51;100495.81;;;12.17;66.13
46944;BME280;32678;43.852;25.952;2024-01-06T12:46:48;100496.34;;;12.25;66.03
46944;BME280;32678;43.852;25.952;2024-01-06T12:51:45;100498.88;;;12.27;65.95
46944;BME280;32678;43.852;25.952;2024-01-06T12:56:42;100500.53;;;12.29;65.65
46944;BME280;32678;43.852;25.952;2024-01-06T13:01:39;100498.72;;;12.31;65.48
46944;BME280;32678;43.852;25.952;2024-01-06T13:06:35;100493.47;;;12.31;65.25
46944;BME280;32678;43.852;25.952;2024-01-06T13:11:32;100496.09;;;12.31;65.43
46944;BME280;32678;43.852;25.952;2024-01-06T13:16:30;100484.50;;;12.35;65.34
46944;BME280;32678;43.852;25.952;2024-01-06T13:21:27;100473.06;;;12.36;65.52
46944;BME280;32678;43.852;25.952;2024-01-06T13:26:24;100473.84;;;12.38;65.40
46944;BME280;32678;43.852;25.952;2024-01-06T13:31:21;100459.84;;;12.38;65.43
46944;BME280;32678;43.852;25.952;2024-01-06T13:36:19;100456.34;;;12.37;65.74
46944;BME280;32678;43.852;25.952;2024-01-06T13:41:16;100445.72;;;12.40;65.60
46944;BME280;32678;43.852;25.952;2024-01-06T13:46:12;100443.22;;;12.37;66.04
46944;BME280;32678;43.852;25.952;2024-01-06T13:51:09;100454.66;;;12.36;66.47
46944;BME280;32678;43.852;25.952;2024-01-06T13:56:07;100461.69;;;12.36;66.38
46944;BME280;32678;43.852;25.952;2024-01-06T14:01:03;100457.00;;;12.42;66.32
46944;BME280;32678;43.852;25.952;2024-01-06T14:06:00;100455.94;;;12.46;65.86
46944;BME280;32678;43.852;25.952;2024-01-06T14:10:57;100456.78;;;12.47;65.98
46944;BME280;32678;43.852;25.952;2024-01-06T14:15:54;100446.28;;;12.47;65.92
46944;BME280;32678;43.852;25.952;2024-01-06T14:20:51;100435.75;;;12.47;65.73
46944;BME280;32678;43.852;25.952;2024-01-06T14:25:47;100434.84;;;12.48;65.42
46944;BME280;32678;43.852;25.952;2024-01-06T14:30:44;100442.66;;;12.49;65.37
46944;BME280;32678;43.852;25.952;2024-01-06T14:35:42;100426.09;;;12.47;65.21
46944;BME280;32678;43.852;25.952;2024-01-06T14:40:39;100449.69;;;12.49;65.15
46944;BME280;32678;43.852;25.952;2024-01-06T14:45:36;100452.53;;;12.44;65.00
46944;BME280;32678;43.852;25.952;2024-01-06T14:50:34;100455.00;;;12.47;65.09
46944;BME280;32678;43.852;25.952;2024-01-06T14:55:31;100450.69;;;12.46;65.39
46944;BME280;32678;43.852;25.952;2024-01-06T15:00:28;100443.31;;;12.36;66.02
46944;BME280;32678;43.852;25.952;2024-01-06T15:05:26;100431.84;;;12.37;66.03
46944;BME280;32678;43.852;25.952;2024-01-06T15:10:24;100419.63;;;12.36;66.02
46944;BME280;32678;43.852;25.952;2024-01-06T15:15:22;100423.41;;;12.30;66.38
46944;BME280;32678;43.852;25.952;2024-01-06T15:20:18;100425.00;;;12.33;66.35
46944;BME280;32678;43.852;25.952;2024-01-06T15:25:15;100408.31;;;12.34;66.07
46944;BME280;32678;43.852;25.952;2024-01-06T15:30:13;100398.88;;;12.30;66.05
46944;BME280;32678;43.852;25.952;2024-01-06T15:35:12;100401.72;;;12.25;66.25
46944;BME280;32678;43.852;25.952;2024-01-06T15:40:09;100404.19;;;12.28;66.08
46944;BME280;32678;43.852;25.952;2024-01-06T15:45:06;100397.84;;;12.13;66.68
46944;BME280;32678;43.852;25.952;2024-01-06T15:50:04;100384.44;;;12.20;66.53
46944;BME280;32678;43.852;25.952;2024-01-06T15:55:04;100365.03;;;12.22;66.38
46944;BME280;32678;43.852;25.952;2024-01-06T16:00:01;100357.31;;;12.19;66.33
46944;BME280;32678;43.852;25.952;2024-01-06T16:05:00;100348.72;;;12.15;67.10
46944;BME280;32678;43.852;25.952;2024-01-06T16:09:57;100337.69;;;12.07;67.81
46944;BME280;32678;43.852;25.952;2024-01-06T16:14:54;100344.59;;;12.10;68.38
46944;BME280;32678;43.852;25.952;2024-01-06T16:19:50;100336.72;;;12.10;68.53
46944;BME280;32678;43.852;25.952;2024-01-06T16:24:47;100319.50;;;12.03;68.89
46944;BME280;32678;43.852;25.952;2024-01-06T16:29:44;100342.13;;;12.07;69.13
46944;BME280;32678;43.852;25.952;2024-01-06T16:34:41;100327.28;;;12.06;68.82
46944;BME280;32678;43.852;25.952;2024-01-06T16:39:38;100352.09;;;11.99;69.10
46944;BME280;32678;43.852;25.952;2024-01-06T16:44:34;100346.09;;;11.97;69.23
46944;BME280;32678;43.852;25.952;2024-01-06T16:49:31;100344.91;;;12.02;68.83
46944;BME280;32678;43.852;25.952;2024-01-06T16:54:28;100343.78;;;11.89;69.43
46944;BME280;32678;43.852;25.952;2024-01-06T16:59:26;100334.84;;;11.93;70.29
46944;BME280;32678;43.852;25.952;2024-01-06T17:04:23;100323.19;;;11.99;71.19
46944;BME280;32678;43.852;25.952;2024-01-06T17:09:20;100328.81;;;12.10;72.00
46944;BME280;32678;43.852;25.952;2024-01-06T17:14:17;100312.84;;;12.14;72.00
46944;BME280;32678;43.852;25.952;2024-01-06T17:19:14;100315.31;;;12.18;72.17
46944;BME280;32678;43.852;25.952;2024-01-06T17:24:11;100292.53;;;12.18;72.49
46944;BME280;32678;43.852;25.952;2024-01-06T17:29:07;100303.88;;;12.19;72.66
46944;BME280;32678;43.852;25.952;2024-01-06T17:34:05;100288.81;;;12.22;72.76
46944;BME280;32678;43.852;25.952;2024-01-06T17:39:02;100283.66;;;12.21;73.31
46944;BME280;32678;43.852;25.952;2024-01-06T17:43:59;100273.16;;;12.21;73.67
46944;BME280;32678;43.852;25.952;2024-01-06T17:48:56;100279.78;;;12.28;73.59
46944;BME280;32678;43.852;25.952;2024-01-06T17:53:53;100264.53;;;12.36;73.35
46944;BME280;32678;43.852;25.952;2024-01-06T17:58:50;100268.78;;;12.38;73.33
46944;BME280;32678;43.852;25.952;2024-01-06T18:03:46;100264.94;;;12.27;74.10
46944;BME280;32678;43.852;25.952;2024-01-06T18:08:43;100254.38;;;12.28;74.08
46944;BME280;32678;43.852;25.952;2024-01-06T18:13:40;100261.84;;;12.19;74.79
46944;BME280;32678;43.852;25.952;2024-01-06T18:18:37;100262.94;;;11.96;76.22
46944;BME280;32678;43.852;25.952;2024-01-06T18:23:34;100258.16;;;11.85;76.34
46944;BME280;32678;43.852;25.952;2024-01-06T18:28:31;100249.59;;;11.82;75.86
46944;BME280;32678;43.852;25.952;2024-01-06T18:33:28;100233.66;;;12.03;74.88
46944;BME280;32678;43.852;25.952;2024-01-06T18:38:25;100232.44;;;12.10;74.61
46944;BME280;32678;43.852;25.952;2024-01-06T18:43:22;100235.72;;;12.15;74.55
46944;BME280;32678;43.852;25.952;2024-01-06T18:48:18;100225.69;;;12.24;74.07
46944;BME280;32678;43.852;25.952;2024-01-06T18:53:16;100218.88;;;12.20;74.29
46944;BME280;32678;43.852;25.952;2024-01-06T18:58:12;100217.41;;;11.95;74.01
46944;BME280;32678;43.852;25.952;2024-01-06T19:03:09;100216.41;;;11.98;73.27
46944;BME280;32678;43.852;25.952;2024-01-06T19:08:05;100203.91;;;12.03;72.99
46944;BME280;32678;43.852;25.952;2024-01-06T19:13:03;100197.66;;;12.05;73.04
46944;BME280;32678;43.852;25.952;2024-01-06T19:18:04;100195.78;;;12.07;73.22
46944;BME280;32678;43.852;25.952;2024-01-06T19:23:01;100184.78;;;12.18;73.28
46944;BME280;32678;43.852;25.952;2024-01-06T19:28:06;100163.44;;;12.24;73.29
46944;BME280;32678;43.852;25.952;2024-01-06T19:33:03;100159.50;;;12.33;73.39
46944;BME280;32678;43.852;25.952;2024-01-06T19:38:01;100152.72;;;12.29;72.73
46944;BME280;32678;43.852;25.952;2024-01-06T19:42:59;100142.50;;;12.23;71.53
46944;BME280;32678;43.852;25.952;2024-01-06T19:47:57;100137.28;;;12.04;70.76
46944;BME280;32678;43.852;25.952;2024-01-06T19:52:54;100122.03;;;11.93;71.17
46944;BME280;32678;43.852;25.952;2024-01-06T19:57:50;100119.19;;;11.98;71.34
46944;BME280;32678;43.852;25.952;2024-01-06T20:02:47;100114.97;;;11.95;71.46
46944;BME280;32678;43.852;25.952;2024-01-06T20:07:44;100109.69;;;11.95;74.22
46944;BME280;32678;43.852;25.952;2024-01-06T20:12:41;100100.06;;;12.13;74.64
46944;BME280;32678;43.852;25.952;2024-01-06T20:17:37;100098.44;;;12.28;77.54
46944;BME280;32678;43.852;25.952;2024-01-06T20:22:34;100095.41;;;12.52;77.30
46944;BME280;32678;43.852;25.952;2024-01-06T20:27:31;100094.41;;;12.38;73.51
46944;BME280;32678;43.852;25.952;2024-01-06T20:32:29;100080.13;;;12.09;72.18
46944;BME280;32678;43.852;25.952;2024-01-06T20:37:27;100081.56;;;11.97;72.09
46944;BME280;32678;43.852;25.952;2024-01-06T20:42:23;100086.38;;;11.70;71.20
46944;BME280;32678;43.852;25.952;2024-01-06T20:47:21;100075.25;;;11.09;72.24
46944;BME280;32678;43.852;25.952;2024-01-06T20:52:18;100080.91;;;10.61;74.59
46944;BME280;32678;43.852;25.952;2024-01-06T20:57:14;100073.72;;;10.66;74.34
46944;BME280;32678;43.852;25.952;2024-01-06T21:02:11;100067.50;;;10.69;74.92
46944;BME280;32678;43.852;25.952;2024-01-06T21:07:09;100057.06;;;10.67;74.54
46944;BME280;32678;43.852;25.952;2024-01-06T21:12:05;100051.06;;;10.45;75.28
46944;BME280;32678;43.852;25.952;2024-01-06T21:17:02;100047.22;;;9.91;78.65
46944;BME280;32678;43.852;25.952;2024-01-06T21:21:59;100052.91;;;10.23;78.13
46944;BME280;32678;43.852;25.952;2024-01-06T21:26:56;100035.25;;;10.47;78.69
46944;BME280;32678;43.852;25.952;2024-01-06T21:31:52;100038.88;;;10.83;78.19
46944;BME280;32678;43.852;25.952;2024-01-06T21:36:49;100036.91;;;11.07;78.06
46944;BME280;32678;43.852;25.952;2024-01-06T21:41:46;100024.69;;;11.24;77.73
46944;BME280;32678;43.852;25.952;2024-01-06T21:46:43;100005.69;;;11.38;77.29
46944;BME280;32678;43.852;25.952;2024-01-06T21:51:45;100003.06;;;11.38;77.04
46944;BME280;32678;43.852;25.952;2024-01-06T21:56:42;99997.44;;;11.46;77.26
46944;BME280;32678;43.852;25.952;2024-01-06T22:01:39;99973.75;;;11.47;77.77
46944;BME280;32678;43.852;25.952;2024-01-06T22:06:36;99978.59;;;11.38;78.64
46944;BME280;32678;43.852;25.952;2024-01-06T22:11:35;99977.44;;;11.60;78.08
46944;BME280;32678;43.852;25.952;2024-01-06T22:16:32;99975.16;;;11.71;77.76
46944;BME280;32678;43.852;25.952;2024-01-06T22:21:29;99973.97;;;11.43;78.37
46944;BME280;32678;43.852;25.952;2024-01-06T22:26:26;99954.13;;;11.54;78.95
46944;BME280;32678;43.852;25.952;2024-01-06T22:31:24;99961.03;;;11.74;77.94
46944;BME280;32678;43.852;25.952;2024-01-06T22:36:21;99945.03;;;11.79;76.84
46944;BME280;32678;43.852;25.952;2024-01-06T22:41:19;99936.75;;;11.52;77.11
46944;BME280;32678;43.852;25.952;2024-01-06T22:46:16;99930.75;;;11.67;77.14
46944;BME280;32678;43.852;25.952;2024-01-06T22:51:13;99916.31;;;11.76;77.95
46944;BME280;32678;43.852;25.952;2024-01-06T22:56:10;99916.53;;;11.88;77.89
46944;BME280;32678;43.852;25.952;2024-01-06T23:01:06;99913.41;;;11.82;77.63
46944;BME280;32678;43.852;25.952;2024-01-06T23:06:05;99911.81;;;11.95;77.63
46944;BME280;32678;43.852;25.952;2024-01-06T23:11:03;99910.66;;;12.00;77.73
46944;BME280;32678;43.852;25.952;2024-01-06T23:16:04;99898.50;;;12.15;77.55
46944;BME280;32678;43.852;25.952;2024-01-06T23:21:01;99892.22;;;12.18;77.50
46944;BME280;32678;43.852;25.952;2024-01-06T23:26:00;99897.31;;;12.21;77.40
46944;BME280;32678;43.852;25.952;2024-01-06T23:30:57;99887.81;;;12.18;77.73
46944;BME280;32678;43.852;25.952;2024-01-06T23:35:53;99890.19;;;12.23;77.71
46944;BME280;32678;43.852;25.952;2024-01-06T23:40:50;99885.53;;;12.28;77.70
46944;BME280;32678;43.852;25.952;2024-01-06T23:45:47;99882.16;;;12.26;78.63
46944;BME280;32678;43.852;25.952;2024-01-06T23:50:44;99864.47;;;12.45;78.10
46944;BME280;32678;43.852;25.952;2024-01-06T23:55:41;99870.09;;;12.06;74.09
